Latest Coastal Weather Observations for Wynyard

IDV60701

Issued at 1:21 pm EDT Monday 23 January 2017 (issued every 10 minutes, with the page automatically refreshed every 10 minutes)

About coastal observations | Map of coastal stations | Coastal observations for VIC | Marine services | Other Formats
Station Details ID: 091107 Name: WYNYARD AIRPORT Lat: -41.00 Lon: 145.73 Height: 12.0 m
Data from the previous 72 hours. | See also: Recent months at Wynyard
Date/Time
EDT
Temp
°C
Wind Pressure Rain since
9am
mm
Weather Cloud Vis
km
Sea
Height
m
Swell
Dir  Spd
kts
Gust
kts
hPa Trend Height
m
Period
s
Dir
23/01:00pm 21.2 E 10 13 1005.9 - 0.0 - Partly cloudy 10 - - - -
23/12:30pm 20.4 E 9 14 1006.3 - 0.0 - Partly cloudy 10 - - - -
23/12:00pm 20.8 E 9 12 1006.7 - 0.0 - - 10 - - - -
23/11:30am 21.0 ENE 8 14 1007.0 - 0.0 - Partly cloudy 10 - - - -
23/11:00am 19.4 ENE 8 13 1007.5 - 0.0 - Partly cloudy 10 - - - -
23/10:30am 19.0 E 8 11 1007.6 - 0.0 - Partly cloudy 10 - - - -
23/10:00am 18.5 E 9 14 1007.6 - 0.0 - Partly cloudy 10 - - - -
23/09:30am 17.8 E 9 13 1007.9 - 0.0 - - 10 - - - -
23/09:00am 17.9 E 7 11 1008.4 - 0.0 - - 10 - - - -
23/08:30am 17.1 E 8 11 1008.1 - 0.0 - - 10 - - - -
23/08:00am 16.3 ESE 4 5 1008.2 - 0.0 - - 10 - - - -
23/07:30am 14.2 SSE 4 6 1008.3 - 0.0 - - 10 - - - -
23/07:00am 13.2 S 4 5 1008.8 - 0.0 - - 10 - - - -
23/06:30am 11.9 SW 3 4 1009.1 - 0.0 - Partly cloudy 10 - - - -
23/06:00am 12.0 WSW 3 4 1009.2 - 0.0 - Partly cloudy 10 - - - -
23/05:30am 12.9 S 4 5 1009.2 - 0.0 - - 10 - - - -
23/05:00am 13.0 S 5 6 1009.1 - 0.0 - - 10 - - - -
23/04:30am 12.7 S 6 7 1009.3 - 0.0 - Partly cloudy 10 - - - -
23/04:21am 12.8 SSE 7 8 1009.4 - 0.0 - Partly cloudy 10 - - - -
23/04:00am 13.4 SSE 7 8 1009.7 - 0.0 - Partly cloudy 10 - - - -
23/03:30am 13.7 S 2 4 1010.1 - 0.0 - Partly cloudy 10 - - - -
23/03:00am 14.0 S 4 5 1010.3 - 0.0 - Mostly cloudy 10 - - - -
23/02:30am 14.3 S 5 6 1010.7 - 0.0 - Partly cloudy 10 - - - -
23/02:00am 13.0 SW 5 6 1011.1 - 0.0 - Partly cloudy 10 - - - -
23/01:58am 13.1 SW 4 6 1011.0 - 0.0 - Partly cloudy 10 - - - -
23/01:33am 12.3 CALM 0 0 1011.0 - 0.0 - Partly cloudy 5 - - - -
23/01:30am 12.3 CALM 0 0 1011.0 - 0.0 - Partly cloudy 5 - - - -
23/01:29am 12.2 CALM 0 0 1011.0 - 0.0 - Partly cloudy 5 - - - -
23/01:03am 12.3 S 2 4 1011.4 - 0.0 - Partly cloudy 10 - - - -
23/01:00am 11.9 S 3 4 1011.5 - 0.0 - Partly cloudy 10 - - - -
23/12:30am 12.2 S 4 5 1011.8 - 0.0 - - 10 - - - -
23/12:00am 12.6 S 4 5 1012.1 - 0.0 - - 10 - - - -
 
Date/Time
EDT
Temp
°C
Wind Pressure Rain since
9am
mm
Weather Cloud Vis
km
Sea
Height
m
Swell
Dir  Spd
kts
Gust
kts
hPa Trend Height
m
Period
s
Dir
22/11:30pm 13.4 S 5 6 1012.3 - 0.0 - - 10 - - - -
22/11:00pm 13.6 SSW 1 5 1012.5 - 0.0 - - 10 - - - -
22/10:30pm 14.6 CALM 0 0 1012.7 - 0.0 - - 10 - - - -
22/10:00pm 15.4 SSE 3 4 1012.7 - 0.0 - - 10 - - - -
22/09:30pm 16.6 NW 4 5 1012.7 - 0.0 - - 10 - - - -
22/09:00pm 17.3 NW 6 9 1012.5 - 0.0 - - 10 - - - -
22/08:30pm 18.3 NNW 6 9 1012.5 - 0.0 - - 10 - - - -
22/08:00pm 19.0 NNW 7 10 1012.2 - 0.0 - - 10 - - - -
22/07:30pm 19.9 NW 7 11 1012.1 - 0.0 - - 10 - - - -
22/07:00pm 20.0 NNW 10 14 1012.2 - 0.0 - - 10 - - - -
22/06:30pm 20.1 NW 10 16 1012.2 - 0.0 - - 10 - - - -
22/06:00pm 20.4 NW 10 13 1012.2 - 0.0 - - 10 - - - -
22/05:30pm 20.3 NNW 9 13 1012.5 - 0.0 - - 10 - - - -
22/05:00pm 20.5 NNW 8 14 1012.8 - 0.0 - - 10 - - - -
22/04:30pm 20.4 NNW 12 16 1013.0 - 0.0 - - 10 - - - -
22/04:00pm 19.9 NNW 11 15 1013.2 - 0.0 - - 10 - - - -
22/03:30pm 20.4 NNW 11 14 1013.3 - 0.0 - - 10 - - - -
22/03:00pm 20.5 NNW 10 14 1013.6 - 0.0 - - 10 - - - -
22/02:30pm 20.2 NNW 11 13 1013.9 - 0.0 - - 10 - - - -
22/02:00pm 19.7 NW 11 15 1014.3 - 0.0 - - 10 - - - -
22/01:30pm 19.2 NW 14 17 1014.5 - 0.0 - - 10 - - - -
22/01:00pm 20.3 NNW 11 15 1014.6 - 0.0 - - 10 - - - -
22/12:30pm 19.1 NNW 11 14 1014.8 - 0.0 - - 10 - - - -
22/12:00pm 20.2 NNW 9 13 1014.9 - 0.0 - - 10 - - - -
22/11:30am 19.4 NW 9 11 1015.1 - 0.0 - - 10 - - - -
22/11:00am 19.8 NNW 10 13 1015.3 - 0.0 - - 10 - - - -
22/10:30am 19.2 NE 5 7 1015.4 - 0.0 - - 10 - - - -
22/10:00am 18.1 NNW 5 7 1015.6 - 0.0 - - 10 - - - -
22/09:30am 17.0 NW 4 6 1015.9 - 0.0 - - 10 - - - -
22/09:00am 15.7 NW 4 6 1016.2 - 0.0 - - 10 - - - -
22/08:30am 14.2 W 5 6 1016.0 - 0.0 - - 10 - - - -
22/08:00am 12.4 NW 5 6 1015.9 - 0.0 - - 10 - - - -
22/07:30am 11.1 WNW 5 6 1015.7 - 0.0 - - 10 - - - -
22/07:00am 10.1 CALM 0 3 1015.4 - 0.0 - - 10 - - - -
22/06:30am 9.2 WNW 11 12 1015.2 - 0.0 - - 10 - - - -
22/06:00am 7.7 WSW 10 11 1014.9 - 0.0 - - 10 - - - -
22/05:30am 7.2 W 5 6 1014.9 - 0.0 - - 10 - - - -
22/05:00am 7.7 W 5 6 1014.6 - 0.0 - - 10 - - - -
22/04:30am 8.1 W 5 5 1014.2 - 0.0 - - 10 - - - -
22/04:00am 8.1 WSW 5 6 1014.4 - 0.0 - - 10 - - - -
22/03:30am 8.6 W 5 6 1014.4 - 0.0 - - 10 - - - -
22/03:00am 8.9 W 7 8 1014.5 - 0.0 - - 10 - - - -
22/02:30am 9.3 W 6 7 1014.6 - 0.0 - - 10 - - - -
22/02:00am 9.7 W 7 8 1014.8 - 0.0 - - 10 - - - -
22/01:30am 9.2 W 5 6 1015.0 - 0.0 - - 10 - - - -
22/01:00am 10.5 W 5 6 1015.2 - 0.0 - - 10 - - - -
22/12:30am 10.3 W 4 5 1015.2 - 0.0 - - 10 - - - -
22/12:00am 10.5 W 6 7 1015.2 - 0.0 - - 10 - - - -
 
Date/Time
EDT
Temp
°C
Wind Pressure Rain since
9am
mm
Weather Cloud Vis
km
Sea
Height
m
Swell
Dir  Spd
kts
Gust
kts
hPa Trend Height
m
Period
s
Dir
21/11:30pm 10.6 WSW 5 7 1015.3 - 0.0 - - 10 - - - -
21/11:00pm 11.3 W 6 7 1015.3 - 0.0 - - 10 - - - -
21/10:30pm 13.3 W 3 4 1015.3 - 0.0 - - 10 - - - -
21/10:00pm 13.3 WSW 6 9 1015.1 - 0.0 - - 10 - - - -
21/09:30pm 14.3 W 7 8 1014.9 - 0.0 - - 10 - - - -
21/09:00pm 14.9 W 6 7 1014.6 - 0.0 - - 10 - - - -
21/08:30pm 16.7 W 8 10 1014.1 - 0.0 - - 10 - - - -
21/08:00pm 18.1 W 10 14 1013.7 - 0.0 - - 10 - - - -
21/07:30pm 18.7 W 13 18 1013.3 - 0.0 - - 10 - - - -
21/07:00pm 19.5 W 14 18 1013.1 - 0.0 - Partly cloudy 10 - - - -
21/06:30pm 19.8 W 15 20 1013.0 - 0.0 - Partly cloudy 10 - - - -
21/06:00pm 19.8 W 14 21 1012.8 - 0.0 - Mostly cloudy 10 - - - -
21/05:30pm 19.2 W 15 19 1012.7 - 0.0 - Partly cloudy 10 - - - -
21/05:00pm 19.6 W 13 17 1012.7 - 0.0 - Partly cloudy 10 - - - -
21/04:30pm 19.6 WSW 13 18 1012.7 - 0.0 - Partly cloudy 10 - - - -
21/04:00pm 20.3 W 15 21 1012.9 - 0.0 - Partly cloudy 10 - - - -
21/03:30pm 19.1 W 15 20 1012.9 - 0.0 - Partly cloudy 10 - - - -
21/03:00pm 19.4 W 14 19 1012.7 - 0.0 - Cloudy 10 - - - -
21/02:30pm 19.1 WSW 11 14 1012.9 - 0.0 - Partly cloudy 10 - - - -
21/02:00pm 18.6 W 8 11 1012.9 - 0.0 - Partly cloudy 10 - - - -
21/01:30pm 18.0 W 10 14 1013.0 - 0.0 - Partly cloudy 10 - - - -
21/01:00pm 17.5 W 9 13 1013.1 - 0.0 - Partly cloudy 10 - - - -
21/12:30pm 17.6 WSW 13 18 1012.8 - 0.0 - Partly cloudy 10 - - - -
21/12:00pm 17.2 W 14 17 1012.6 - 0.0 - Cloudy 10 - - - -
21/11:30am 17.6 W 11 14 1012.5 - 0.0 - Cloudy 10 - - - -
21/11:00am 17.0 W 11 15 1012.4 - 0.0 - Partly cloudy 10 - - - -
21/10:30am 16.9 W 9 13 1012.3 - 0.0 - Partly cloudy 10 - - - -
21/10:00am 16.2 W 11 17 1012.1 - 0.0 - Cloudy 10 - - - -
21/09:30am 16.1 WSW 9 13 1012.2 - 0.0 - Partly cloudy 10 - - - -
21/09:00am 15.4 W 10 14 1012.1 - 0.8 - - 10 - - - -
21/08:30am 14.3 W 9 12 1011.8 - 0.8 - Partly cloudy 10 - - - -
21/08:00am 12.5 W 8 10 1011.3 - 0.8 - - 10 - - - -
21/07:30am 11.4 W 5 7 1010.9 - 0.8 - - 10 - - - -
21/07:00am 9.9 W 5 7 1010.6 - 0.8 - - 10 - - - -
21/06:30am 8.1 W 7 7 1010.3 - 0.8 - - 10 - - - -
21/06:00am 8.0 W 8 9 1009.8 - 0.8 - - 10 - - - -
21/05:30am 7.4 W 8 9 1009.2 - 0.8 - - 10 - - - -
21/05:00am 7.8 W 9 9 1008.7 - 0.8 - - 10 - - - -
21/04:30am 7.8 W 7 8 1008.2 - 0.8 - - 10 - - - -
21/04:00am 7.7 W 6 7 1007.9 - 0.8 - - 10 - - - -
21/03:30am 8.2 W 8 9 1007.7 - 0.8 - - 10 - - - -
21/03:00am 9.3 W 10 11 1007.6 - 0.8 - - 10 - - - -
21/02:30am 8.9 W 7 8 1007.3 - 0.8 - - 10 - - - -
21/02:00am 10.3 NW 6 8 1007.4 - 0.8 - - 10 - - - -
21/01:30am 10.2 WNW 7 8 1007.2 - 0.8 - - 10 - - - -
21/01:00am 10.6 WNW 7 9 1007.0 - 0.8 - - 10 - - - -
21/12:30am 11.4 WNW 6 7 1006.6 - 0.8 - - 10 - - - -
21/12:00am 11.6 W 8 12 1006.8 - 0.8 - - 10 - - - -
 
Date/Time
EDT
Temp
°C
Wind Pressure Rain since
9am
mm
Weather Cloud Vis
km
Sea
Height
m
Swell
Dir  Spd
kts
Gust
kts
hPa Trend Height
m
Period
s
Dir
20/11:30pm 11.9 WSW 7 11 1006.6 - 0.8 - - 10 - - - -
20/11:00pm 12.2 WSW 8 11 1006.4 - 0.8 - - 10 - - - -
20/10:30pm 12.5 WSW 8 12 1006.4 - 0.8 - Partly cloudy 10 - - - -
20/10:00pm 12.6 WSW 5 7 1005.8 - 0.8 - Partly cloudy 10 - - - -
20/09:30pm 13.7 SW 10 14 1005.0 - 0.8 - - 10 - - - -
20/09:00pm 14.1 SW 11 15 1004.6 - 0.8 - - 10 - - - -
20/08:30pm 14.7 SW 13 18 1004.0 - 0.8 - Partly cloudy 10 - - - -
20/08:00pm 15.6 SSW 10 16 1003.2 - 0.8 - Partly cloudy 10 - - - -
20/07:30pm 16.1 SW 8 14 1002.8 - 0.8 - Cloudy 10 - - - -
20/07:00pm 16.5 SW 14 20 1001.9 - 0.8 - Partly cloudy 10 - - - -
20/06:40pm 17.3 SW 18 28 1001.1 - 0.8 - Partly cloudy 10 - - - -
20/06:30pm 17.5 SW 19 26 1000.7 - 0.8 - Partly cloudy 10 - - - -
20/06:06pm 18.3 SW 20 30 1000.1 - 0.8 - - 10 - - - -
20/06:00pm 18.3 SW 22 30 999.9 - 0.8 - - 10 - - - -
20/05:37pm 18.5 SW 20 30 999.4 - 0.8 - - 10 - - - -
20/05:30pm 19.2 SW 18 27 999.1 - 0.8 - Partly cloudy 10 - - - -
20/05:07pm 20.0 SSW 16 26 998.9 - 0.8 - Partly cloudy 10 - - - -
20/05:00pm 19.3 SSW 17 26 998.9 - 0.8 - Partly cloudy 10 - - - -
20/04:30pm 20.5 SW 18 25 998.1 - 0.8 - Partly cloudy 10 - - - -
20/04:00pm 20.6 SW 17 25 997.2 - 0.6 - Partly cloudy 10 - - - -
20/03:49pm 20.6 SW 16 26 996.8 - 0.6 - Partly cloudy 10 - - - -
20/03:30pm 20.6 SW 14 21 996.5 - 0.6 - Partly cloudy 10 - - - -
20/03:00pm 21.6 SSW 16 22 995.9 - 0.6 - Partly cloudy 10 - - - -
20/02:30pm 19.4 SW 9 15 996.0 - 0.6 - Partly cloudy 10 - - - -
20/02:00pm 18.3 WSW 11 17 996.0 - 0.6 - Partly cloudy 10 - - - -
20/01:30pm 17.6 WSW 4 7 995.1 - 0.6 - Cloudy 10 - - - -

Other Formats:

Comma delimited format used in spreadsheet applications
http://www.bom.gov.au/fwo/IDV60701/IDV60701.95957.axf

JavaScript Object Notation format (JSON) in row-major order
http://www.bom.gov.au/fwo/IDV60701/IDV60701.95957.json